Agency Village, South Dakota
Current Conditions -  °F | °C
As of 6:16 AM on Friday 28 Nov 2014 (Local Time) from KETH Reporting Station
Clear Clear  
Wind Chill: -22°   Ceiling: Unl
Heat Index: -15°   Visibility: 10mi
Dew Point: -17°   Wind: 8mph
Humidity: 85%   Direction: 100°E
Pressure: 29.98"   Gusts: NA
Location:  45.7041°N, 96.9842°W
Report Text: KETH 281216Z AUTO 10007KT 10SM CLR M15/M17 A2998 RMK AO2
Loading
Personal Weather Stations






























Interactive Weather Map New forecast layout! Learn more

10-Day Weather Forecast

Advertisements
Track Severe Weather on mobile